Time;durP1;ratioP1;P1;durP2;ratioP2;P2;SDS_P1;SDS_P2;PMS_P1;PMS_P2;Temp;Humidity;BMP_temperature;BMP_pressure;BME280_temperature;BME280_humidity;BME280_pressure;Samples;Min_cycle;Max_cycle;Signal;HPM_P1;HPM_P2
2023/05/08 04:03:21;;;;;;;5.53;5.03;;;18.60;83.20;;;;;;4977920;28;20482;-79
2023/05/08 04:05:56;;;;;;;6.33;5.83;;;18.60;83.30;;;;;;4979269;28;20426;-79
2023/05/08 04:08:27;;;;;;;5.43;5.03;;;18.60;83.20;;;;;;4978986;28;20434;-80
2023/05/08 04:11:04;;;;;;;6.20;5.60;;;18.60;83.30;;;;;;4983377;28;20606;-79
2023/05/08 04:13:33;;;;;;;5.87;5.33;;;18.60;83.20;;;;;;4998705;28;20528;-78
2023/05/08 04:16:06;;;;;;;5.63;5.13;;;18.60;83.20;;;;;;4998518;28;20500;-80
2023/05/08 04:18:38;;;;;;;6.27;5.77;;;18.60;83.20;;;;;;4997976;28;20441;-78
2023/05/08 04:21:10;;;;;;;5.83;5.43;;;18.60;83.30;;;;;;4997984;28;20544;-79
2023/05/08 04:23:40;;;;;;;6.33;5.90;;;18.60;83.20;;;;;;4998384;28;20454;-79
2023/05/08 04:26:07;;;;;;;6.13;5.63;;;18.60;83.30;;;;;;4998056;28;20449;-79
2023/05/08 04:28:34;;;;;;;6.60;6.10;;;18.60;83.10;;;;;;4997814;28;20449;-79
2023/05/08 04:31:03;;;;;;;6.67;6.07;;;18.50;83.30;;;;;;4998035;28;20488;-79
2023/05/08 04:33:30;;;;;;;6.93;6.33;;;18.50;83.40;;;;;;4997744;28;20495;-79
2023/05/08 04:36:00;;;;;;;6.20;5.70;;;18.50;83.50;;;;;;4997873;28;20853;-78
2023/05/08 04:38:27;;;;;;;6.47;5.97;;;18.60;83.30;;;;;;4997689;28;20837;-80
2023/05/08 04:40:54;;;;;;;7.17;5.93;;;18.60;83.20;;;;;;4997501;28;20453;-79
2023/05/08 04:43:21;;;;;;;7.13;6.63;;;18.60;83.20;;;;;;4997746;28;20452;-79
2023/05/08 04:45:47;;;;;;;6.43;5.83;;;18.60;83.20;;;;;;4997380;28;20972;-79
2023/05/08 04:48:14;;;;;;;6.80;6.30;;;18.60;83.20;;;;;;4997338;28;20931;-78
2023/05/08 04:50:40;;;;;;;7.07;6.53;;;18.60;83.30;;;;;;4997424;28;20508;-79
2023/05/08 04:53:08;;;;;;;7.60;7.00;;;18.60;83.40;;;;;;4997967;28;20520;-78
2023/05/08 04:55:35;;;;;;;8.53;7.33;;;18.60;83.10;;;;;;4996281;28;20934;-78
2023/05/08 04:58:02;;;;;;;7.50;6.90;;;18.50;83.50;;;;;;4996925;28;20453;-78
2023/05/08 05:00:28;;;;;;;6.33;5.83;;;18.50;83.60;;;;;;4996862;28;20496;-79
2023/05/08 05:02:55;;;;;;;7.57;6.97;;;18.50;83.50;;;;;;4996484;28;21021;-78
2023/05/08 05:05:22;;;;;;;7.77;7.13;;;18.40;83.80;;;;;;4997160;28;20457;-78
2023/05/08 05:07:48;;;;;;;7.53;7.00;;;18.10;84.30;;;;;;4997461;28;20454;-78
2023/05/08 05:10:16;;;;;;;7.00;6.47;;;18.10;84.80;;;;;;4997547;28;20489;-78
2023/05/08 05:12:43;;;;;;;7.93;7.23;;;18.20;84.60;;;;;;4998183;28;20465;-78
2023/05/08 05:15:11;;;;;;;8.67;7.90;;;18.00;84.80;;;;;;4997542;28;20487;-79
2023/05/08 05:17:37;;;;;;;6.87;6.37;;;18.10;84.70;;;;;;4998087;28;20536;-79
2023/05/08 05:20:07;;;;;;;7.37;6.87;;;18.00;84.90;;;;;;4997319;28;20480;-79
2023/05/08 05:22:34;;;;;;;6.73;6.23;;;18.10;84.60;;;;;;4997472;28;20997;-79
2023/05/08 05:25:00;;;;;;;6.27;5.77;;;18.20;84.70;;;;;;4997739;28;20449;-79
2023/05/08 05:27:28;;;;;;;6.70;6.20;;;18.20;84.50;;;;;;4997241;28;20934;-79
2023/05/08 05:29:55;;;;;;;6.63;6.10;;;18.30;84.40;;;;;;4997153;28;20827;-79
2023/05/08 05:32:22;;;;;;;6.70;6.10;;;18.30;83.90;;;;;;4997482;28;20523;-79
2023/05/08 05:34:48;;;;;;;6.83;6.23;;;18.40;83.80;;;;;;4997684;28;20527;-79
2023/05/08 05:37:15;;;;;;;7.33;6.73;;;18.50;83.70;;;;;;4997720;28;20527;-79
2023/05/08 05:39:42;;;;;;;6.70;6.10;;;18.50;83.80;;;;;;4997701;28;20449;-79
2023/05/08 05:42:08;;;;;;;6.33;5.83;;;18.60;83.50;;;;;;4997522;28;20896;-79
2023/05/08 05:44:36;;;;;;;5.83;5.37;;;18.60;83.30;;;;;;4998555;28;20508;-77
2023/05/08 05:47:04;;;;;;;6.57;6.07;;;18.70;83.40;;;;;;4999266;28;20449;-79
2023/05/08 05:49:30;;;;;;;5.53;5.13;;;18.70;83.40;;;;;;4999930;28;20544;-79
2023/05/08 05:51:57;;;;;;;6.47;5.97;;;18.70;83.10;;;;;;4999127;28;20547;-79
2023/05/08 05:54:24;;;;;;;6.80;5.90;;;18.80;82.90;;;;;;4999012;28;20565;-79
2023/05/08 05:56:50;;;;;;;6.60;6.10;;;18.70;83.00;;;;;;4996970;28;20452;-79
2023/05/08 05:59:17;;;;;;;6.30;5.80;;;18.80;82.90;;;;;;4997531;28;20541;-78
2023/05/08 06:01:45;;;;;;;6.73;6.13;;;18.70;83.10;;;;;;4996508;28;20476;-78
2023/05/08 06:04:12;;;;;;;5.83;5.33;;;18.80;83.00;;;;;;4997209;28;20445;-79
2023/05/08 06:06:38;;;;;;;5.73;5.33;;;18.90;82.90;;;;;;4996611;28;20457;-80
2023/05/08 06:09:05;;;;;;;6.60;6.10;;;18.90;82.70;;;;;;4997988;28;20453;-79
2023/05/08 06:11:32;;;;;;;6.60;6.10;;;19.00;82.60;;;;;;4996594;28;20489;-78
2023/05/08 06:13:59;;;;;;;6.23;5.73;;;18.90;82.70;;;;;;4997598;28;20445;-79
2023/05/08 06:16:25;;;;;;;6.30;5.80;;;18.80;83.00;;;;;;4997611;28;20465;-78
2023/05/08 06:18:53;;;;;;;6.13;5.63;;;18.90;82.90;;;;;;4997108;28;20508;-78
2023/05/08 06:21:20;;;;;;;6.07;5.57;;;18.90;82.70;;;;;;4996476;28;20844;-78
2023/05/08 06:23:47;;;;;;;6.60;5.87;;;19.00;82.70;;;;;;4997054;28;20958;-78
2023/05/08 06:26:13;;;;;;;5.33;4.83;;;19.00;82.40;;;;;;4997526;28;20845;-78
2023/05/08 06:28:40;;;;;;;5.90;5.50;;;19.00;82.20;;;;;;4997569;28;20449;-78
2023/05/08 06:31:07;;;;;;;5.57;5.07;;;19.10;81.80;;;;;;4997210;28;20485;-79
2023/05/08 06:33:33;;;;;;;5.37;4.97;;;19.10;82.00;;;;;;4996927;28;20869;-79
2023/05/08 06:36:01;;;;;;;6.73;6.23;;;19.10;81.90;;;;;;4997586;28;20458;-79
2023/05/08 06:38:28;;;;;;;4.97;4.57;;;19.10;81.70;;;;;;4997412;28;20934;-79
2023/05/08 06:40:55;;;;;;;4.87;4.47;;;19.10;81.60;;;;;;4997229;28;20461;-79
2023/05/08 06:43:21;;;;;;;5.20;4.70;;;19.20;81.60;;;;;;4997365;28;20453;-78
2023/05/08 06:45:48;;;;;;;5.73;5.23;;;19.20;81.60;;;;;;4997571;28;20469;-79
2023/05/08 06:48:15;;;;;;;5.47;5.07;;;19.20;81.60;;;;;;4996898;28;21009;-77
2023/05/08 06:50:42;;;;;;;5.97;5.47;;;18.90;82.00;;;;;;5000601;28;20485;-79
2023/05/08 06:53:10;;;;;;;5.97;5.47;;;18.80;82.10;;;;;;4996049;28;20456;-78
2023/05/08 06:55:36;;;;;;;5.87;5.43;;;18.50;83.00;;;;;;4995763;28;20495;-79
2023/05/08 06:58:03;;;;;;;5.60;5.20;;;18.60;83.20;;;;;;4995110;28;21008;-79
2023/05/08 07:00:30;;;;;;;5.47;5.00;;;18.60;83.30;;;;;;4995922;28;20505;-79
2023/05/08 07:02:56;;;;;;;4.80;4.40;;;18.60;83.20;;;;;;4996138;28;20433;-78
2023/05/08 07:05:23;;;;;;;5.60;5.10;;;18.60;83.80;;;;;;4996912;28;20453;-78
2023/05/08 07:07:52;;;;;;;5.37;4.90;;;18.60;83.60;;;;;;4996369;28;20446;-79
2023/05/08 07:10:21;;;;;;;5.13;4.73;;;18.70;83.40;;;;;;4995731;28;20495;-78
2023/05/08 07:12:48;;;;;;;5.80;5.30;;;18.80;83.40;;;;;;4996762;28;20454;-78
2023/05/08 07:15:15;;;;;;;5.40;4.90;;;18.80;83.50;;;;;;4996312;28;20494;-79
2023/05/08 07:17:42;;;;;;;5.60;5.10;;;18.70;83.70;;;;;;4995975;28;20876;-78
2023/05/08 07:20:09;;;;;;;5.73;5.23;;;18.60;84.00;;;;;;4996235;28;20480;-78
2023/05/08 07:22:36;;;;;;;5.53;5.03;;;18.60;83.90;;;;;;4995998;28;20542;-79
2023/05/08 07:25:02;;;;;;;5.07;4.67;;;18.30;84.50;;;;;;4995863;28;20449;-78
2023/05/08 07:27:30;;;;;;;5.57;5.07;;;18.50;84.40;;;;;;4996254;28;20449;-78
2023/05/08 07:29:57;;;;;;;5.70;5.30;;;18.60;84.20;;;;;;4996047;28;20449;-78
2023/05/08 07:32:24;;;;;;;5.17;4.73;;;18.50;84.30;;;;;;4995437;28;20512;-78
2023/05/08 07:34:51;;;;;;;6.10;5.60;;;18.40;84.50;;;;;;4995799;28;20460;-78
2023/05/08 07:37:17;;;;;;;5.87;5.37;;;18.30;85.30;;;;;;4995653;28;20457;-78
2023/05/08 07:39:46;;;;;;;6.03;5.63;;;18.10;85.90;;;;;;4995635;28;20512;-79
2023/05/08 07:42:12;;;;;;;7.23;6.63;;;17.90;86.20;;;;;;4995352;28;20512;-79
2023/05/08 07:44:41;;;;;;;6.53;6.00;;;18.10;86.10;;;;;;4995173;28;20454;-79
2023/05/08 07:47:08;;;;;;;5.77;5.23;;;18.00;85.00;;;;;;4995281;28;20453;-80
2023/05/08 07:49:35;;;;;;;5.10;4.70;;;18.10;85.60;;;;;;4995187;28;20511;-79
2023/05/08 07:52:02;;;;;;;5.90;5.40;;;18.20;85.10;;;;;;4995182;28;20489;-79
2023/05/08 07:54:28;;;;;;;5.50;5.10;;;18.30;84.90;;;;;;4995076;28;20512;-79
2023/05/08 07:56:55;;;;;;;5.90;5.40;;;18.30;84.90;;;;;;4994615;28;20449;-79
2023/05/08 07:59:22;;;;;;;5.70;5.20;;;17.90;85.90;;;;;;4994859;28;20478;-79
2023/05/08 08:01:50;;;;;;;5.83;5.33;;;17.60;87.00;;;;;;4994522;28;20563;-79
2023/05/08 08:04:16;;;;;;;5.50;5.10;;;17.20;88.80;;;;;;4994850;28;20473;-79
2023/05/08 08:06:43;;;;;;;7.17;5.20;;;17.30;88.50;;;;;;4994739;28;20548;-79
2023/05/08 08:09:11;;;;;;;5.90;5.50;;;16.90;89.30;;;;;;4994845;28;20511;-79
2023/05/08 08:11:37;;;;;;;6.53;6.03;;;16.90;90.40;;;;;;4994704;28;20489;-79
2023/05/08 08:14:04;;;;;;;5.70;5.20;;;16.80;90.50;;;;;;4994835;28;20453;-79
2023/05/08 08:16:31;;;;;;;4.67;4.27;;;17.00;90.80;;;;;;4994408;28;20861;-79
2023/05/08 08:18:59;;;;;;;3.57;3.27;;;17.00;89.80;;;;;;4994496;28;20536;-79
2023/05/08 08:21:26;;;;;;;4.10;3.70;;;16.90;89.40;;;;;;4994560;28;20468;-79
2023/05/08 08:23:52;;;;;;;3.97;3.53;;;16.80;89.90;;;;;;4994415;28;20493;-79
2023/05/08 08:26:19;;;;;;;7.00;3.50;;;16.70;89.50;;;;;;4994416;28;20500;-78
2023/05/08 08:28:45;;;;;;;4.37;3.97;;;16.40;90.70;;;;;;4994476;28;20449;-79
2023/05/08 08:31:12;;;;;;;3.90;3.60;;;16.50;91.30;;;;;;4997003;28;20481;-79
2023/05/08 08:33:39;;;;;;;3.73;3.43;;;16.60;91.00;;;;;;4997688;28;20900;-79
2023/05/08 08:36:13;;;;;;;3.60;3.30;;;16.60;90.60;;;;;;4998112;28;20460;-79
2023/05/08 08:38:39;;;;;;;4.37;3.97;;;16.50;90.90;;;;;;4998013;28;20437;-79
2023/05/08 08:41:06;;;;;;;3.47;3.17;;;16.40;91.40;;;;;;4998239;28;20520;-79
2023/05/08 08:43:33;;;;;;;4.10;3.57;;;16.50;91.30;;;;;;4997899;28;20449;-79
2023/05/08 08:46:02;;;;;;;4.90;3.90;;;16.60;90.80;;;;;;4997720;28;20957;-79
2023/05/08 08:48:30;;;;;;;4.40;4.00;;;16.60;90.50;;;;;;4997636;28;20822;-79
2023/05/08 08:51:02;;;;;;;3.60;3.30;;;16.80;90.60;;;;;;4997272;28;20990;-79
2023/05/08 08:53:36;;;;;;;3.30;3.00;;;17.00;89.80;;;;;;4997142;28;20442;-80
2023/05/08 08:56:07;;;;;;;3.50;3.20;;;17.20;89.00;;;;;;4997428;28;20817;-79
2023/05/08 08:58:42;;;;;;;3.20;2.90;;;17.30;88.50;;;;;;4997618;28;20493;-79
2023/05/08 09:01:14;;;;;;;5.03;3.40;;;17.50;88.20;;;;;;4997755;28;21048;-79
2023/05/08 09:03:41;;;;;;;3.50;2.80;;;17.70;87.20;;;;;;4997426;28;20434;-79
2023/05/08 09:06:08;;;;;;;3.17;2.87;;;17.80;86.90;;;;;;4997482;28;20466;-79
2023/05/08 09:08:37;;;;;;;3.10;2.80;;;17.80;86.60;;;;;;4997771;28;20476;-79
2023/05/08 09:11:04;;;;;;;3.60;3.30;;;17.80;86.70;;;;;;4997630;28;20488;-79
2023/05/08 09:13:30;;;;;;;5.77;3.30;;;17.90;86.50;;;;;;4997760;28;20449;-79
2023/05/08 09:15:57;;;;;;;3.17;2.87;;;18.00;86.30;;;;;;4998145;28;20496;-79
2023/05/08 09:18:24;;;;;;;3.50;2.97;;;18.00;86.10;;;;;;4998103;28;20453;-79
2023/05/08 09:20:51;;;;;;;3.20;2.90;;;17.90;86.30;;;;;;4998132;28;20478;-79
2023/05/08 09:23:18;;;;;;;3.10;2.80;;;17.90;86.40;;;;;;4998520;28;20459;-79
2023/05/08 09:25:48;;;;;;;3.33;2.50;;;18.00;86.20;;;;;;4998444;28;20457;-78
2023/05/08 09:28:19;;;;;;;4.53;2.77;;;18.00;86.10;;;;;;4997656;28;20523;-78
2023/05/08 09:30:51;;;;;;;3.17;2.87;;;18.10;85.70;;;;;;4997231;28;20975;-79
2023/05/08 09:33:17;;;;;;;3.20;2.70;;;18.30;85.40;;;;;;4997848;28;20456;-79
2023/05/08 09:35:44;;;;;;;3.90;2.80;;;18.40;85.10;;;;;;4998061;28;20453;-79
2023/05/08 09:38:32;;;;;;;3.20;2.80;;;18.30;85.40;;;;;;4998153;28;20475;-79
2023/05/08 09:41:10;;;;;;;3.20;2.90;;;18.00;85.30;;;;;;4996951;28;20465;-79
2023/05/08 09:43:38;;;;;;;2.93;2.43;;;18.00;86.00;;;;;;4997842;28;20469;-79
2023/05/08 09:46:21;;;;;;;4.27;2.53;;;17.90;86.10;;;;;;4997588;28;20453;-79
2023/05/08 09:48:48;;;;;;;2.60;2.13;;;17.80;86.60;;;;;;4997280;28;20918;-79
2023/05/08 09:51:14;;;;;;;2.83;2.40;;;17.80;86.20;;;;;;4997398;28;20498;-79
2023/05/08 09:53:41;;;;;;;3.10;2.67;;;17.70;86.50;;;;;;4997140;28;20499;-79
2023/05/08 09:56:09;;;;;;;2.50;2.30;;;17.60;87.40;;;;;;4996842;28;21062;-79
2023/05/08 09:58:40;;;;;;;3.17;2.03;;;17.90;86.90;;;;;;4997185;28;20488;-79
2023/05/08 10:01:07;;;;;;;2.57;2.13;;;18.10;86.60;;;;;;4996779;28;20588;-79
2023/05/08 10:03:50;;;;;;;2.80;2.50;;;18.30;86.20;;;;;;4997248;28;20904;-79
2023/05/08 10:06:16;;;;;;;2.57;2.37;;;18.40;85.10;;;;;;4996938;28;20460;-79
2023/05/08 10:08:43;;;;;;;3.00;2.50;;;18.70;84.60;;;;;;4997130;28;20939;-79
2023/05/08 10:11:16;;;;;;;2.70;2.30;;;18.80;84.20;;;;;;4997204;28;20539;-79
2023/05/08 10:13:43;;;;;;;2.90;2.20;;;18.90;84.20;;;;;;4996523;28;20488;-79
2023/05/08 10:16:14;;;;;;;2.33;2.13;;;18.90;83.80;;;;;;4996862;28;20445;-80
2023/05/08 10:18:45;;;;;;;3.60;3.17;;;18.80;83.80;;;;;;4996924;28;20457;-78
2023/05/08 10:21:13;;;;;;;2.50;2.30;;;19.00;83.80;;;;;;4996658;28;20461;-78
2023/05/08 10:23:41;;;;;;;2.50;2.17;;;19.10;83.00;;;;;;4997681;28;20445;-79
2023/05/08 10:26:12;;;;;;;5.23;2.47;;;19.10;82.80;;;;;;4996325;28;20441;-79
2023/05/08 10:28:46;;;;;;;3.57;2.70;;;19.20;82.40;;;;;;4996297;28;20470;-79
2023/05/08 10:31:17;;;;;;;2.57;2.37;;;19.10;82.90;;;;;;4995964;28;20523;-78
2023/05/08 10:33:45;;;;;;;2.50;2.10;;;19.30;83.00;;;;;;4997042;28;20438;-78
2023/05/08 10:36:13;;;;;;;3.10;2.63;;;19.40;82.40;;;;;;4996587;28;20541;-78
2023/05/08 10:38:41;;;;;;;2.80;2.47;;;19.50;81.60;;;;;;4995892;28;20446;-78
2023/05/08 10:41:10;;;;;;;2.73;2.43;;;19.70;81.50;;;;;;4995969;28;20470;-78
2023/05/08 10:43:39;;;;;;;2.50;2.07;;;19.80;80.60;;;;;;4996257;28;20453;-78
2023/05/08 10:46:14;;;;;;;2.47;2.00;;;19.80;80.10;;;;;;4996463;28;20507;-78
2023/05/08 10:48:50;;;;;;;2.17;1.73;;;19.60;80.70;;;;;;4996621;28;20919;-78
2023/05/08 10:51:23;;;;;;;2.30;1.80;;;19.50;81.50;;;;;;4995775;28;20519;-78
2023/05/08 10:53:55;;;;;;;2.37;2.10;;;19.60;81.10;;;;;;4994743;28;20904;-78
2023/05/08 10:56:26;;;;;;;2.30;1.80;;;19.60;81.50;;;;;;4995677;28;20487;-77
2023/05/08 10:58:56;;;;;;;2.40;2.10;;;19.40;81.40;;;;;;4995898;28;20457;-78
2023/05/08 11:01:25;;;;;;;2.30;2.00;;;19.20;81.40;;;;;;4994891;28;21053;-78
2023/05/08 11:03:53;;;;;;;2.37;2.07;;;19.20;82.30;;;;;;4995333;28;20453;-78
2023/05/08 11:06:45;;;;;;;3.30;3.00;;;19.20;81.60;;;;;;4995683;28;20461;-78
2023/05/08 11:09:19;;;;;;;2.70;2.33;;;19.20;81.70;;;;;;4995748;28;20794;-78
2023/05/08 11:11:56;;;;;;;2.80;2.50;;;19.50;80.90;;;;;;4995181;28;20484;-78
2023/05/08 11:14:23;;;;;;;2.97;2.63;;;19.60;80.90;;;;;;4995351;28;20437;-78
2023/05/08 11:17:08;;;;;;;3.20;2.90;;;19.50;81.30;;;;;;4995208;28;20453;-78
2023/05/08 11:19:36;;;;;;;9.60;2.73;;;19.50;81.60;;;;;;4995512;28;20457;-78
2023/05/08 11:22:35;;;;;;;3.00;2.70;;;19.70;81.40;;;;;;4995795;28;20528;-79
2023/05/08 11:25:04;;;;;;;2.70;2.40;;;19.70;80.50;;;;;;4995178;28;20549;-79
2023/05/08 11:27:33;;;;;;;2.87;2.40;;;19.50;80.80;;;;;;4995182;28;20485;-78
2023/05/08 11:30:19;;;;;;;3.40;2.93;;;19.60;81.40;;;;;;4995671;28;20460;-78
2023/05/08 11:33:15;;;;;;;3.00;2.70;;;19.70;81.50;;;;;;4994876;28;21038;-79
2023/05/08 11:35:50;;;;;;;3.23;2.93;;;19.60;81.60;;;;;;4995611;28;20445;-77
2023/05/08 11:38:20;;;;;;;3.13;2.60;;;19.30;82.80;;;;;;4994956;28;20917;-78
2023/05/08 11:40:48;;;;;;;2.63;2.40;;;19.30;83.10;;;;;;4995511;28;20473;-79
2023/05/08 11:43:26;;;;;;;2.60;2.40;;;19.20;82.20;;;;;;4994404;28;20816;-78
2023/05/08 11:45:54;;;;;;;2.80;2.50;;;19.30;82.20;;;;;;4994885;28;20537;-78
2023/05/08 11:48:22;;;;;;;2.67;2.30;;;19.40;81.80;;;;;;4994736;28;20449;-79
2023/05/08 11:50:50;;;;;;;2.63;2.27;;;19.80;81.30;;;;;;4994682;28;20470;-79
2023/05/08 11:53:17;;;;;;;2.60;2.40;;;19.80;79.90;;;;;;4994698;28;20568;-79
2023/05/08 11:55:47;;;;;;;2.80;2.30;;;19.70;80.10;;;;;;4994408;28;20516;-79
2023/05/08 11:58:15;;;;;;;2.90;2.50;;;19.40;80.10;;;;;;4994793;28;20457;-79
2023/05/08 12:00:43;;;;;;;3.00;2.50;;;19.50;80.90;;;;;;4994543;28;20931;-79
2023/05/08 12:03:12;;;;;;;3.57;2.70;;;19.60;80.10;;;;;;4994799;28;20438;-80
2023/05/08 12:05:40;;;;;;;2.57;2.30;;;19.80;79.70;;;;;;4996927;28;20449;-79
2023/05/08 12:08:07;;;;;;;2.87;2.40;;;20.00;79.60;;;;;;4998470;28;20503;-79
2023/05/08 12:10:40;;;;;;;3.10;2.77;;;20.20;79.20;;;;;;4998164;28;20863;-79
2023/05/08 12:13:16;;;;;;;2.87;2.67;;;20.20;79.30;;;;;;4998225;28;20559;-79
2023/05/08 12:15:43;;;;;;;3.40;3.10;;;20.30;79.90;;;;;;4998924;28;20512;-79
2023/05/08 12:18:09;;;;;;;3.50;3.20;;;20.30;78.90;;;;;;4997807;28;20449;-79
2023/05/08 12:20:36;;;;;;;3.40;3.10;;;20.40;79.10;;;;;;4997880;28;20449;-79
2023/05/08 12:23:04;;;;;;;3.20;2.90;;;20.40;77.80;;;;;;4998291;28;20504;-79
2023/05/08 12:25:31;;;;;;;3.57;3.27;;;20.20;78.60;;;;;;4997671;28;20539;-79
2023/05/08 12:27:59;;;;;;;3.93;3.63;;;19.80;78.40;;;;;;4997797;28;20452;-79
2023/05/08 12:30:25;;;;;;;3.77;3.47;;;20.00;78.60;;;;;;4997319;28;20507;-79
2023/05/08 12:32:52;;;;;;;4.23;3.37;;;20.20;78.00;;;;;;4997518;28;20543;-79
2023/05/08 12:35:19;;;;;;;3.77;3.37;;;19.90;79.40;;;;;;4997521;28;20449;-78
2023/05/08 12:37:46;;;;;;;4.50;3.47;;;20.00;80.20;;;;;;4997697;28;20445;-79
2023/05/08 12:40:25;;;;;;;4.07;3.60;;;20.30;80.20;;;;;;4997395;28;20606;-78
2023/05/08 12:42:52;;;;;;;5.17;3.17;;;20.60;78.60;;;;;;4997589;28;20429;-78
2023/05/08 12:45:19;;;;;;;3.53;3.23;;;20.90;77.90;;;;;;4997531;28;20446;-78
2023/05/08 12:47:48;;;;;;;3.70;3.40;;;20.70;78.00;;;;;;4996971;28;20880;-78
2023/05/08 12:50:15;;;;;;;4.20;3.90;;;20.70;77.10;;;;;;4996920;28;20964;-78
2023/05/08 12:52:42;;;;;;;3.73;3.43;;;21.00;78.70;;;;;;4997160;28;20832;-78
2023/05/08 12:55:21;;;;;;;6.80;3.50;;;20.90;76.20;;;;;;4997063;28;20449;-76
2023/05/08 12:57:50;;;;;;;3.70;3.10;;;20.80;76.10;;;;;;4997107;28;20433;-78
2023/05/08 13:00:18;;;;;;;3.60;3.30;;;20.80;76.50;;;;;;4996824;28;20926;-78
2023/05/08 13:02:52;;;;;;;3.20;2.90;;;20.90;76.10;;;;;;4996826;28;21046;-78
2023/05/08 13:05:20;;;;;;;6.37;4.03;;;21.10;76.50;;;;;;4997006;28;20525;-78
2023/05/08 13:07:47;;;;;;;3.40;3.10;;;21.30;77.00;;;;;;4997381;28;20527;-78
2023/05/08 13:10:13;;;;;;;3.73;3.43;;;21.00;72.70;;;;;;4998096;28;20508;-77
2023/05/08 13:12:40;;;;;;;4.00;3.60;;;20.80;75.70;;;;;;4997702;28;21010;-77
2023/05/08 13:15:10;;;;;;;4.03;3.63;;;21.30;76.30;;;;;;4996102;28;20511;-77
2023/05/08 13:17:37;;;;;;;3.30;3.00;;;21.30;76.10;;;;;;4995901;28;20792;-78
2023/05/08 13:20:04;;;;;;;3.63;3.20;;;21.40;74.80;;;;;;4996380;28;20476;-77
2023/05/08 13:22:31;;;;;;;3.90;3.50;;;21.20;74.40;;;;;;4996141;28;20473;-78
2023/05/08 13:24:57;;;;;;;4.00;3.70;;;21.30;73.90;;;;;;4995944;28;20449;-78
2023/05/08 13:27:24;;;;;;;4.20;3.80;;;21.20;74.20;;;;;;4996161;28;20508;-77
2023/05/08 13:29:50;;;;;;;3.80;3.50;;;21.20;73.10;;;;;;4995902;28;20449;-77
2023/05/08 13:32:19;;;;;;;4.23;3.83;;;20.90;73.40;;;;;;4995904;28;20473;-78
2023/05/08 13:34:45;;;;;;;3.83;3.53;;;20.40;75.10;;;;;;4995987;28;20449;-78
2023/05/08 13:37:12;;;;;;;4.23;3.83;;;20.40;74.60;;;;;;4995946;28;20873;-77
2023/05/08 13:39:38;;;;;;;4.50;4.10;;;20.50;76.20;;;;;;4995498;28;20934;-78
2023/05/08 13:42:05;;;;;;;5.23;4.73;;;20.60;76.10;;;;;;4995664;28;20465;-78
2023/05/08 13:44:32;;;;;;;8.50;4.47;;;20.70;76.20;;;;;;4995430;28;20804;-77
2023/05/08 13:46:59;;;;;;;5.00;4.60;;;20.80;76.40;;;;;;4995618;28;20997;-78
2023/05/08 13:49:27;;;;;;;4.10;3.70;;;20.90;75.60;;;;;;4995324;28;20500;-77
2023/05/08 13:51:53;;;;;;;4.47;4.07;;;21.10;74.20;;;;;;4995637;28;20469;-78
2023/05/08 13:54:20;;;;;;;5.23;3.93;;;20.60;74.10;;;;;;4996150;28;20540;-77
2023/05/08 13:56:48;;;;;;;4.63;4.23;;;20.70;74.70;;;;;;4995445;28;20453;-77
2023/05/08 13:59:15;;;;;;;4.93;4.60;;;20.60;76.00;;;;;;4995397;28;20802;-77
2023/05/08 14:01:42;;;;;;;5.00;4.60;;;20.30;75.80;;;;;;4995036;28;20523;-77
2023/05/08 14:04:08;;;;;;;4.53;4.13;;;20.30;75.90;;;;;;4995293;28;20446;-78
2023/05/08 14:06:36;;;;;;;3.90;3.60;;;20.10;75.90;;;;;;4995344;28;20527;-78
2023/05/08 14:09:03;;;;;;;5.27;4.87;;;20.10;75.10;;;;;;4995312;28;20445;-77
2023/05/08 14:11:30;;;;;;;3.53;3.23;;;20.30;76.20;;;;;;4995163;28;20472;-77
2023/05/08 14:13:56;;;;;;;6.00;5.60;;;20.30;76.20;;;;;;4995072;28;20517;-77
2023/05/08 14:16:23;;;;;;;5.03;4.63;;;20.30;76.30;;;;;;4995156;28;20500;-77
2023/05/08 14:18:50;;;;;;;5.07;4.67;;;20.40;77.00;;;;;;4994981;28;20449;-77
2023/05/08 14:21:16;;;;;;;5.20;4.80;;;20.40;76.80;;;;;;4995033;28;20465;-78
2023/05/08 14:23:44;;;;;;;5.40;4.33;;;20.20;76.60;;;;;;4994877;28;20476;-79
2023/05/08 14:26:12;;;;;;;4.07;3.77;;;19.90;77.90;;;;;;4994870;28;20445;-77
2023/05/08 14:28:39;;;;;;;4.33;3.93;;;19.90;76.50;;;;;;4993950;28;20445;-77
2023/05/08 14:31:06;;;;;;;4.23;3.93;;;20.00;76.20;;;;;;4994672;28;20473;-78
2023/05/08 14:33:32;;;;;;;4.10;3.70;;;19.80;76.80;;;;;;4994677;28;20481;-77
2023/05/08 14:35:59;;;;;;;4.90;4.47;;;20.10;77.10;;;;;;4994466;28;20573;-77
2023/05/08 14:38:26;;;;;;;5.00;4.60;;;20.10;77.30;;;;;;4994603;28;20512;-78
2023/05/08 14:40:54;;;;;;;5.33;4.93;;;20.00;77.60;;;;;;4994532;28;20469;-77
2023/05/08 14:43:21;;;;;;;5.30;4.90;;;19.90;78.20;;;;;;4994506;28;20450;-78
2023/05/08 14:45:48;;;;;;;5.80;5.30;;;19.80;78.40;;;;;;4994341;28;20942;-77
2023/05/08 14:48:15;;;;;;;5.80;5.40;;;19.50;79.10;;;;;;4994582;28;20501;-79
2023/05/08 14:50:42;;;;;;;5.13;4.73;;;19.70;79.60;;;;;;4994401;28;20466;-78
2023/05/08 14:53:08;;;;;;;5.90;5.40;;;19.70;79.70;;;;;;4994327;28;20568;-77
2023/05/08 14:55:35;;;;;;;5.37;4.97;;;19.70;79.50;;;;;;4994342;28;20453;-77
2023/05/08 14:58:03;;;;;;;6.30;5.80;;;19.70;79.60;;;;;;4994295;28;20523;-77
2023/05/08 15:00:30;;;;;;;6.27;5.77;;;19.70;79.60;;;;;;4994229;28;20488;-78
2023/05/08 15:02:56;;;;;;;5.30;4.90;;;19.50;79.40;;;;;;4994318;28;20480;-77
2023/05/08 15:05:23;;;;;;;5.83;5.33;;;19.50;79.80;;;;;;4994233;28;20504;-77
2023/05/08 15:07:50;;;;;;;6.83;6.33;;;19.50;79.40;;;;;;4994070;28;20446;-77
2023/05/08 15:10:16;;;;;;;6.23;5.73;;;19.30;80.10;;;;;;4994151;28;20497;-77
2023/05/08 15:12:43;;;;;;;5.63;5.13;;;19.10;80.20;;;;;;4993745;28;21045;-77
2023/05/08 15:15:11;;;;;;;5.57;5.17;;;18.80;80.60;;;;;;4994211;28;20485;-77
2023/05/08 15:17:40;;;;;;;4.97;4.53;;;18.90;81.20;;;;;;4994678;28;20507;-78
2023/05/08 15:20:08;;;;;;;5.33;4.83;;;19.10;80.20;;;;;;4994173;28;20474;-77
2023/05/08 15:22:35;;;;;;;5.40;4.80;;;19.10;80.60;;;;;;4994100;28;20874;-77
2023/05/08 15:25:02;;;;;;;5.40;4.90;;;19.30;80.60;;;;;;4993865;28;20492;-78
2023/05/08 15:27:29;;;;;;;5.17;4.77;;;19.30;80.30;;;;;;4993931;28;20449;-77
2023/05/08 15:29:56;;;;;;;5.30;4.90;;;19.50;80.20;;;;;;4994259;28;20453;-77
2023/05/08 15:32:24;;;;;;;4.87;4.47;;;19.60;79.80;;;;;;4993839;28;20528;-78
2023/05/08 15:34:51;;;;;;;5.27;4.83;;;19.70;80.60;;;;;;4993837;28;20484;-78
2023/05/08 15:37:17;;;;;;;5.50;5.10;;;19.90;80.80;;;;;;4994037;28;20448;-77
2023/05/08 15:39:44;;;;;;;7.47;6.77;;;20.10;80.80;;;;;;4995765;28;20943;-78
2023/05/08 15:42:11;;;;;;;4.60;4.30;;;20.30;80.40;;;;;;4997610;28;20975;-77
2023/05/08 15:44:37;;;;;;;5.40;4.90;;;20.40;80.10;;;;;;4997821;28;20934;-77
2023/05/08 15:47:04;;;;;;;5.63;5.13;;;20.20;80.10;;;;;;4997742;28;20963;-77
2023/05/08 15:49:32;;;;;;;5.40;4.90;;;20.10;80.50;;;;;;4998062;28;20810;-77
2023/05/08 15:51:59;;;;;;;5.80;5.30;;;20.00;81.10;;;;;;4998290;28;20811;-77
2023/05/08 15:54:26;;;;;;;5.47;4.97;;;19.90;81.10;;;;;;4997589;28;20882;-77
2023/05/08 15:56:52;;;;;;;5.00;4.60;;;20.00;81.70;;;;;;4997658;28;20460;-77
2023/05/08 15:59:19;;;;;;;5.03;4.63;;;20.00;81.10;;;;;;4997768;28;20449;-77
2023/05/08 16:01:45;;;;;;;4.93;4.53;;;20.00;81.80;;;;;;4997560;28;20911;-77
2023/05/08 16:04:12;;;;;;;5.27;4.87;;;20.10;81.40;;;;;;4997541;28;20437;-77
2023/05/08 16:06:40;;;;;;;5.93;4.90;;;20.10;81.80;;;;;;4997244;28;20935;-76
2023/05/08 16:09:07;;;;;;;6.63;5.93;;;20.30;82.10;;;;;;4997619;28;20449;-77
2023/05/08 16:11:34;;;;;;;5.90;5.40;;;20.40;82.10;;;;;;4997434;28;20576;-77
2023/05/08 16:14:01;;;;;;;4.97;4.60;;;20.50;81.50;;;;;;4997713;28;20851;-77
2023/05/08 16:16:28;;;;;;;5.50;5.00;;;20.60;81.00;;;;;;4997739;28;20483;-78
2023/05/08 16:18:55;;;;;;;4.77;4.40;;;20.60;80.80;;;;;;4998338;28;20456;-78
2023/05/08 16:21:21;;;;;;;4.73;4.33;;;20.60;79.90;;;;;;4997889;28;20501;-77
2023/05/08 16:23:49;;;;;;;4.90;4.50;;;20.60;79.50;;;;;;4997429;28;20453;-77
2023/05/08 16:26:16;;;;;;;5.20;4.80;;;20.50;78.70;;;;;;4997262;28;20453;-77
2023/05/08 16:28:43;;;;;;;4.90;4.50;;;20.00;78.90;;;;;;4997143;28;20508;-77
2023/05/08 16:31:10;;;;;;;5.70;5.20;;;19.80;79.90;;;;;;4997245;28;20473;-76
2023/05/08 16:33:37;;;;;;;4.50;4.10;;;19.80;80.40;;;;;;4996987;28;21001;-77
2023/05/08 16:36:04;;;;;;;4.70;4.30;;;20.00;80.00;;;;;;4997232;28;20453;-77
2023/05/08 16:38:31;;;;;;;5.17;4.77;;;19.70;80.20;;;;;;4997099;28;20862;-78
2023/05/08 16:41:03;;;;;;;5.30;4.80;;;19.70;80.10;;;;;;4996927;28;20504;-77
2023/05/08 16:43:29;;;;;;;4.63;4.23;;;19.70;79.60;;;;;;4997203;28;20433;-77
2023/05/08 16:45:56;;;;;;;5.80;4.80;;;19.80;79.70;;;;;;4997161;28;20433;-77
2023/05/08 16:48:23;;;;;;;4.90;4.50;;;19.80;79.20;;;;;;4996774;28;20449;-77
2023/05/08 16:50:50;;;;;;;4.40;4.07;;;19.90;78.60;;;;;;4996140;28;20506;-78
2023/05/08 16:53:16;;;;;;;4.50;4.10;;;19.70;79.30;;;;;;4996617;28;20453;-76
2023/05/08 16:55:43;;;;;;;5.00;4.60;;;19.60;79.50;;;;;;4996842;28;20508;-77